sensor_id;sensor_type;location;lat;lon;timestamp;P1;durP1;ratioP1;P2;durP2;ratioP2
72286;SDS011;60221;45.696;16.076;2023-05-08T00:00:10;5.30;;;2.90;;
72286;SDS011;60221;45.696;16.076;2023-05-08T00:02:39;6.10;;;3.10;;
72286;SDS011;60221;45.696;16.076;2023-05-08T00:05:06;6.90;;;3.60;;
72286;SDS011;60221;45.696;16.076;2023-05-08T00:07:37;7.90;;;2.90;;
72286;SDS011;60221;45.696;16.076;2023-05-08T00:10:04;5.80;;;3.10;;
72286;SDS011;60221;45.696;16.076;2023-05-08T00:12:32;6.90;;;3.30;;
72286;SDS011;60221;45.696;16.076;2023-05-08T00:14:59;7.40;;;3.40;;
72286;SDS011;60221;45.696;16.076;2023-05-08T00:17:26;8.40;;;3.40;;
72286;SDS011;60221;45.696;16.076;2023-05-08T00:19:52;8.20;;;2.90;;
72286;SDS011;60221;45.696;16.076;2023-05-08T00:22:19;6.70;;;3.30;;
72286;SDS011;60221;45.696;16.076;2023-05-08T00:24:46;7.50;;;3.80;;
72286;SDS011;60221;45.696;16.076;2023-05-08T00:27:14;6.40;;;3.50;;
72286;SDS011;60221;45.696;16.076;2023-05-08T00:29:41;6.20;;;3.30;;
72286;SDS011;60221;45.696;16.076;2023-05-08T00:32:08;5.70;;;2.60;;
72286;SDS011;60221;45.696;16.076;2023-05-08T00:34:35;5.90;;;2.70;;
72286;SDS011;60221;45.696;16.076;2023-05-08T00:37:02;8.60;;;3.50;;
72286;SDS011;60221;45.696;16.076;2023-05-08T00:39:29;6.80;;;3.20;;
72286;SDS011;60221;45.696;16.076;2023-05-08T00:41:56;6.10;;;2.90;;
72286;SDS011;60221;45.696;16.076;2023-05-08T00:44:23;6.60;;;3.20;;
72286;SDS011;60221;45.696;16.076;2023-05-08T00:46:50;6.10;;;3.00;;
72286;SDS011;60221;45.696;16.076;2023-05-08T00:49:17;7.00;;;2.70;;
72286;SDS011;60221;45.696;16.076;2023-05-08T00:51:45;6.10;;;3.50;;
72286;SDS011;60221;45.696;16.076;2023-05-08T00:54:13;7.40;;;3.40;;
72286;SDS011;60221;45.696;16.076;2023-05-08T00:56:42;8.00;;;3.50;;
72286;SDS011;60221;45.696;16.076;2023-05-08T00:59:10;6.20;;;3.00;;
72286;SDS011;60221;45.696;16.076;2023-05-08T01:01:38;5.10;;;2.50;;
72286;SDS011;60221;45.696;16.076;2023-05-08T01:04:06;5.70;;;2.90;;
72286;SDS011;60221;45.696;16.076;2023-05-08T01:06:33;5.80;;;2.70;;
72286;SDS011;60221;45.696;16.076;2023-05-08T01:09:02;6.40;;;3.50;;
72286;SDS011;60221;45.696;16.076;2023-05-08T01:11:31;6.70;;;2.60;;
72286;SDS011;60221;45.696;16.076;2023-05-08T01:14:10;6.40;;;2.90;;
72286;SDS011;60221;45.696;16.076;2023-05-08T01:19:13;5.50;;;2.80;;
72286;SDS011;60221;45.696;16.076;2023-05-08T01:21:50;6.70;;;3.30;;
72286;SDS011;60221;45.696;16.076;2023-05-08T01:30:15;6.00;;;2.80;;
72286;SDS011;60221;45.696;16.076;2023-05-08T01:32:47;5.20;;;2.30;;
72286;SDS011;60221;45.696;16.076;2023-05-08T01:35:20;5.60;;;2.90;;
72286;SDS011;60221;45.696;16.076;2023-05-08T01:40:51;6.80;;;2.80;;
72286;SDS011;60221;45.696;16.076;2023-05-08T01:43:17;6.40;;;2.80;;
72286;SDS011;60221;45.696;16.076;2023-05-08T01:45:45;7.50;;;2.80;;
72286;SDS011;60221;45.696;16.076;2023-05-08T01:48:18;5.40;;;2.50;;
72286;SDS011;60221;45.696;16.076;2023-05-08T01:50:48;6.00;;;2.80;;
72286;SDS011;60221;45.696;16.076;2023-05-08T01:53:28;5.70;;;2.80;;
72286;SDS011;60221;45.696;16.076;2023-05-08T01:55:57;7.10;;;2.70;;
72286;SDS011;60221;45.696;16.076;2023-05-08T01:58:25;5.10;;;2.50;;
72286;SDS011;60221;45.696;16.076;2023-05-08T02:00:53;5.80;;;3.10;;
72286;SDS011;60221;45.696;16.076;2023-05-08T02:03:21;7.70;;;3.10;;
72286;SDS011;60221;45.696;16.076;2023-05-08T02:05:49;6.80;;;3.00;;
72286;SDS011;60221;45.696;16.076;2023-05-08T02:08:18;5.30;;;2.90;;
72286;SDS011;60221;45.696;16.076;2023-05-08T02:10:47;8.80;;;3.10;;
72286;SDS011;60221;45.696;16.076;2023-05-08T02:13:15;7.30;;;3.00;;
72286;SDS011;60221;45.696;16.076;2023-05-08T02:15:46;6.60;;;3.70;;
72286;SDS011;60221;45.696;16.076;2023-05-08T02:18:13;7.40;;;4.30;;
72286;SDS011;60221;45.696;16.076;2023-05-08T02:20:41;6.90;;;3.60;;
72286;SDS011;60221;45.696;16.076;2023-05-08T02:23:08;5.80;;;3.10;;
72286;SDS011;60221;45.696;16.076;2023-05-08T02:25:36;7.00;;;3.50;;
72286;SDS011;60221;45.696;16.076;2023-05-08T02:28:04;7.20;;;3.70;;
72286;SDS011;60221;45.696;16.076;2023-05-08T02:30:32;6.00;;;3.00;;
72286;SDS011;60221;45.696;16.076;2023-05-08T02:32:59;6.80;;;3.30;;
72286;SDS011;60221;45.696;16.076;2023-05-08T02:35:26;6.20;;;3.60;;
72286;SDS011;60221;45.696;16.076;2023-05-08T02:37:55;9.00;;;4.30;;
72286;SDS011;60221;45.696;16.076;2023-05-08T02:40:26;7.70;;;4.00;;
72286;SDS011;60221;45.696;16.076;2023-05-08T02:42:54;8.30;;;3.70;;
72286;SDS011;60221;45.696;16.076;2023-05-08T02:45:22;7.30;;;4.00;;
72286;SDS011;60221;45.696;16.076;2023-05-08T02:48:12;6.70;;;3.60;;
72286;SDS011;60221;45.696;16.076;2023-05-08T02:50:44;6.00;;;3.40;;
72286;SDS011;60221;45.696;16.076;2023-05-08T02:53:14;6.80;;;3.90;;
72286;SDS011;60221;45.696;16.076;2023-05-08T02:55:45;9.90;;;4.40;;
72286;SDS011;60221;45.696;16.076;2023-05-08T02:58:36;7.90;;;4.10;;
72286;SDS011;60221;45.696;16.076;2023-05-08T03:01:15;6.90;;;3.70;;
72286;SDS011;60221;45.696;16.076;2023-05-08T03:03:48;8.50;;;5.00;;
72286;SDS011;60221;45.696;16.076;2023-05-08T03:06:17;7.40;;;4.00;;
72286;SDS011;60221;45.696;16.076;2023-05-08T03:08:45;9.50;;;5.00;;
72286;SDS011;60221;45.696;16.076;2023-05-08T03:11:14;11.20;;;4.90;;
72286;SDS011;60221;45.696;16.076;2023-05-08T03:13:43;7.30;;;4.20;;
72286;SDS011;60221;45.696;16.076;2023-05-08T03:16:12;8.80;;;4.90;;
72286;SDS011;60221;45.696;16.076;2023-05-08T03:18:59;9.60;;;4.60;;
72286;SDS011;60221;45.696;16.076;2023-05-08T03:21:28;9.30;;;5.10;;
72286;SDS011;60221;45.696;16.076;2023-05-08T03:23:56;8.00;;;4.80;;
72286;SDS011;60221;45.696;16.076;2023-05-08T03:26:24;10.00;;;5.50;;
72286;SDS011;60221;45.696;16.076;2023-05-08T03:28:51;8.30;;;5.10;;
72286;SDS011;60221;45.696;16.076;2023-05-08T03:31:23;10.70;;;6.30;;
72286;SDS011;60221;45.696;16.076;2023-05-08T03:33:52;9.30;;;4.90;;
72286;SDS011;60221;45.696;16.076;2023-05-08T03:36:20;9.20;;;5.10;;
72286;SDS011;60221;45.696;16.076;2023-05-08T03:38:48;9.70;;;5.10;;
72286;SDS011;60221;45.696;16.076;2023-05-08T03:41:15;10.80;;;5.40;;
72286;SDS011;60221;45.696;16.076;2023-05-08T03:43:42;10.30;;;5.30;;
72286;SDS011;60221;45.696;16.076;2023-05-08T03:46:09;9.50;;;6.30;;
72286;SDS011;60221;45.696;16.076;2023-05-08T03:48:37;11.00;;;5.60;;
72286;SDS011;60221;45.696;16.076;2023-05-08T03:51:05;9.10;;;5.10;;
72286;SDS011;60221;45.696;16.076;2023-05-08T03:53:34;10.20;;;5.40;;
72286;SDS011;60221;45.696;16.076;2023-05-08T03:56:02;10.90;;;6.20;;
72286;SDS011;60221;45.696;16.076;2023-05-08T04:03:44;10.90;;;6.30;;
72286;SDS011;60221;45.696;16.076;2023-05-08T04:08:46;10.30;;;6.30;;
72286;SDS011;60221;45.696;16.076;2023-05-08T04:11:22;9.70;;;5.50;;
72286;SDS011;60221;45.696;16.076;2023-05-08T04:13:53;10.80;;;6.00;;
72286;SDS011;60221;45.696;16.076;2023-05-08T04:16:25;11.50;;;6.80;;
72286;SDS011;60221;45.696;16.076;2023-05-08T04:18:56;13.70;;;6.20;;
72286;SDS011;60221;45.696;16.076;2023-05-08T04:21:25;10.40;;;5.80;;
72286;SDS011;60221;45.696;16.076;2023-05-08T04:23:55;11.80;;;6.70;;
72286;SDS011;60221;45.696;16.076;2023-05-08T04:26:23;10.50;;;6.10;;
72286;SDS011;60221;45.696;16.076;2023-05-08T04:28:51;12.00;;;7.00;;
72286;SDS011;60221;45.696;16.076;2023-05-08T04:31:19;14.60;;;7.60;;
72286;SDS011;60221;45.696;16.076;2023-05-08T04:33:46;13.20;;;7.20;;
72286;SDS011;60221;45.696;16.076;2023-05-08T04:36:13;16.00;;;8.10;;
72286;SDS011;60221;45.696;16.076;2023-05-08T04:38:42;13.90;;;7.60;;
72286;SDS011;60221;45.696;16.076;2023-05-08T04:41:09;13.00;;;7.80;;
72286;SDS011;60221;45.696;16.076;2023-05-08T04:43:37;13.30;;;7.40;;
72286;SDS011;60221;45.696;16.076;2023-05-08T04:46:04;12.20;;;7.60;;
72286;SDS011;60221;45.696;16.076;2023-05-08T04:48:32;17.50;;;10.10;;
72286;SDS011;60221;45.696;16.076;2023-05-08T04:51:00;15.00;;;8.00;;
72286;SDS011;60221;45.696;16.076;2023-05-08T04:53:27;15.30;;;8.80;;
72286;SDS011;60221;45.696;16.076;2023-05-08T04:55:54;13.80;;;8.00;;
72286;SDS011;60221;45.696;16.076;2023-05-08T04:58:21;15.10;;;9.10;;
72286;SDS011;60221;45.696;16.076;2023-05-08T05:00:49;14.80;;;8.40;;
72286;SDS011;60221;45.696;16.076;2023-05-08T05:03:16;18.50;;;8.30;;
72286;SDS011;60221;45.696;16.076;2023-05-08T05:05:43;13.80;;;7.80;;
72286;SDS011;60221;45.696;16.076;2023-05-08T05:08:11;13.30;;;7.90;;
72286;SDS011;60221;45.696;16.076;2023-05-08T05:10:39;16.00;;;9.20;;
72286;SDS011;60221;45.696;16.076;2023-05-08T05:13:06;13.60;;;8.60;;
72286;SDS011;60221;45.696;16.076;2023-05-08T05:15:33;14.60;;;8.60;;
72286;SDS011;60221;45.696;16.076;2023-05-08T05:18:00;14.80;;;9.00;;
72286;SDS011;60221;45.696;16.076;2023-05-08T05:20:28;16.70;;;9.20;;
72286;SDS011;60221;45.696;16.076;2023-05-08T05:22:55;14.40;;;9.00;;
72286;SDS011;60221;45.696;16.076;2023-05-08T05:25:23;13.30;;;7.80;;
72286;SDS011;60221;45.696;16.076;2023-05-08T05:27:50;16.40;;;9.60;;
72286;SDS011;60221;45.696;16.076;2023-05-08T05:30:17;16.20;;;9.90;;
72286;SDS011;60221;45.696;16.076;2023-05-08T05:32:44;15.20;;;8.90;;
72286;SDS011;60221;45.696;16.076;2023-05-08T05:35:11;16.00;;;9.00;;
72286;SDS011;60221;45.696;16.076;2023-05-08T05:37:39;14.70;;;8.70;;
72286;SDS011;60221;45.696;16.076;2023-05-08T05:40:07;17.00;;;9.50;;
72286;SDS011;60221;45.696;16.076;2023-05-08T05:42:35;16.70;;;10.00;;
72286;SDS011;60221;45.696;16.076;2023-05-08T05:45:02;19.00;;;9.60;;
72286;SDS011;60221;45.696;16.076;2023-05-08T05:47:30;18.10;;;9.20;;
72286;SDS011;60221;45.696;16.076;2023-05-08T05:49:57;17.30;;;9.40;;
72286;SDS011;60221;45.696;16.076;2023-05-08T05:52:25;18.60;;;10.00;;
72286;SDS011;60221;45.696;16.076;2023-05-08T05:54:52;19.00;;;9.90;;
72286;SDS011;60221;45.696;16.076;2023-05-08T05:57:19;14.90;;;8.90;;
72286;SDS011;60221;45.696;16.076;2023-05-08T05:59:46;16.70;;;9.50;;
72286;SDS011;60221;45.696;16.076;2023-05-08T06:02:13;16.50;;;8.50;;
72286;SDS011;60221;45.696;16.076;2023-05-08T06:04:45;16.90;;;9.50;;
72286;SDS011;60221;45.696;16.076;2023-05-08T06:07:12;18.80;;;9.20;;
72286;SDS011;60221;45.696;16.076;2023-05-08T06:09:39;17.90;;;9.60;;
72286;SDS011;60221;45.696;16.076;2023-05-08T06:12:08;18.90;;;9.50;;
72286;SDS011;60221;45.696;16.076;2023-05-08T06:14:36;15.10;;;9.20;;
72286;SDS011;60221;45.696;16.076;2023-05-08T06:17:03;14.80;;;9.20;;
72286;SDS011;60221;45.696;16.076;2023-05-08T06:19:31;16.20;;;9.50;;
72286;SDS011;60221;45.696;16.076;2023-05-08T06:21:58;15.30;;;8.40;;
72286;SDS011;60221;45.696;16.076;2023-05-08T06:24:25;15.90;;;9.50;;
72286;SDS011;60221;45.696;16.076;2023-05-08T06:26:52;14.70;;;7.50;;
72286;SDS011;60221;45.696;16.076;2023-05-08T06:29:19;17.10;;;9.00;;
72286;SDS011;60221;45.696;16.076;2023-05-08T06:31:47;15.20;;;9.00;;
72286;SDS011;60221;45.696;16.076;2023-05-08T06:34:21;14.00;;;7.80;;
72286;SDS011;60221;45.696;16.076;2023-05-08T06:36:48;14.20;;;8.20;;
72286;SDS011;60221;45.696;16.076;2023-05-08T06:39:15;15.70;;;8.80;;
72286;SDS011;60221;45.696;16.076;2023-05-08T06:41:45;14.50;;;8.20;;
72286;SDS011;60221;45.696;16.076;2023-05-08T06:44:16;13.00;;;7.70;;
72286;SDS011;60221;45.696;16.076;2023-05-08T06:46:43;17.60;;;9.60;;
72286;SDS011;60221;45.696;16.076;2023-05-08T06:49:11;14.10;;;8.20;;
72286;SDS011;60221;45.696;16.076;2023-05-08T06:51:38;12.60;;;7.80;;
72286;SDS011;60221;45.696;16.076;2023-05-08T06:54:05;13.70;;;7.30;;
72286;SDS011;60221;45.696;16.076;2023-05-08T06:56:34;14.30;;;7.40;;
72286;SDS011;60221;45.696;16.076;2023-05-08T06:59:01;14.30;;;8.20;;
72286;SDS011;60221;45.696;16.076;2023-05-08T07:01:35;15.50;;;8.00;;
72286;SDS011;60221;45.696;16.076;2023-05-08T07:04:03;14.60;;;8.40;;
72286;SDS011;60221;45.696;16.076;2023-05-08T07:06:31;15.20;;;8.10;;
72286;SDS011;60221;45.696;16.076;2023-05-08T07:08:57;14.30;;;8.20;;
72286;SDS011;60221;45.696;16.076;2023-05-08T07:11:24;13.90;;;7.80;;
72286;SDS011;60221;45.696;16.076;2023-05-08T07:13:51;13.70;;;7.60;;
72286;SDS011;60221;45.696;16.076;2023-05-08T07:16:18;14.50;;;8.30;;
72286;SDS011;60221;45.696;16.076;2023-05-08T07:18:45;15.10;;;9.00;;
72286;SDS011;60221;45.696;16.076;2023-05-08T07:21:12;13.90;;;7.40;;
72286;SDS011;60221;45.696;16.076;2023-05-08T07:23:41;13.50;;;7.70;;
72286;SDS011;60221;45.696;16.076;2023-05-08T07:26:08;11.90;;;7.00;;
72286;SDS011;60221;45.696;16.076;2023-05-08T07:28:35;13.20;;;8.10;;
72286;SDS011;60221;45.696;16.076;2023-05-08T07:31:05;14.00;;;8.20;;
72286;SDS011;60221;45.696;16.076;2023-05-08T07:33:35;16.40;;;9.20;;
72286;SDS011;60221;45.696;16.076;2023-05-08T07:36:02;17.00;;;9.90;;
72286;SDS011;60221;45.696;16.076;2023-05-08T07:38:29;15.90;;;9.50;;
72286;SDS011;60221;45.696;16.076;2023-05-08T07:40:56;16.60;;;9.30;;
72286;SDS011;60221;45.696;16.076;2023-05-08T07:43:25;15.10;;;8.70;;
72286;SDS011;60221;45.696;16.076;2023-05-08T07:45:52;14.30;;;8.80;;
72286;SDS011;60221;45.696;16.076;2023-05-08T07:48:19;12.50;;;7.00;;
72286;SDS011;60221;45.696;16.076;2023-05-08T07:50:48;11.90;;;6.80;;
72286;SDS011;60221;45.696;16.076;2023-05-08T07:53:15;10.70;;;6.30;;
72286;SDS011;60221;45.696;16.076;2023-05-08T07:55:42;10.60;;;6.60;;
72286;SDS011;60221;45.696;16.076;2023-05-08T07:58:09;12.10;;;7.10;;
72286;SDS011;60221;45.696;16.076;2023-05-08T08:00:36;10.60;;;6.20;;
72286;SDS011;60221;45.696;16.076;2023-05-08T08:03:03;12.40;;;6.20;;
72286;SDS011;60221;45.696;16.076;2023-05-08T08:05:30;10.30;;;5.20;;
72286;SDS011;60221;45.696;16.076;2023-05-08T08:07:57;9.30;;;5.00;;
72286;SDS011;60221;45.696;16.076;2023-05-08T08:10:24;9.70;;;6.40;;
72286;SDS011;60221;45.696;16.076;2023-05-08T08:12:51;10.70;;;5.80;;
72286;SDS011;60221;45.696;16.076;2023-05-08T08:15:18;11.60;;;6.90;;
72286;SDS011;60221;45.696;16.076;2023-05-08T08:17:45;10.20;;;5.40;;
72286;SDS011;60221;45.696;16.076;2023-05-08T08:20:12;10.00;;;5.20;;
72286;SDS011;60221;45.696;16.076;2023-05-08T08:22:39;9.80;;;5.20;;
72286;SDS011;60221;45.696;16.076;2023-05-08T08:25:06;9.10;;;5.10;;
72286;SDS011;60221;45.696;16.076;2023-05-08T08:27:33;9.50;;;5.00;;
72286;SDS011;60221;45.696;16.076;2023-05-08T08:30:00;9.00;;;4.90;;
72286;SDS011;60221;45.696;16.076;2023-05-08T08:32:43;10.60;;;5.20;;
72286;SDS011;60221;45.696;16.076;2023-05-08T08:35:10;10.30;;;5.30;;
72286;SDS011;60221;45.696;16.076;2023-05-08T08:37:38;9.30;;;4.50;;
72286;SDS011;60221;45.696;16.076;2023-05-08T08:40:05;8.20;;;4.90;;
72286;SDS011;60221;45.696;16.076;2023-05-08T08:42:32;9.80;;;5.40;;
72286;SDS011;60221;45.696;16.076;2023-05-08T08:44:59;11.20;;;5.50;;
72286;SDS011;60221;45.696;16.076;2023-05-08T08:47:27;14.10;;;5.80;;
72286;SDS011;60221;45.696;16.076;2023-05-08T08:49:56;9.70;;;4.90;;
72286;SDS011;60221;45.696;16.076;2023-05-08T08:54:55;8.60;;;4.80;;
72286;SDS011;60221;45.696;16.076;2023-05-08T08:57:23;10.20;;;6.00;;
72286;SDS011;60221;45.696;16.076;2023-05-08T08:59:51;10.40;;;5.50;;
72286;SDS011;60221;45.696;16.076;2023-05-08T09:02:18;9.80;;;6.00;;
72286;SDS011;60221;45.696;16.076;2023-05-08T09:04:50;8.80;;;5.70;;
72286;SDS011;60221;45.696;16.076;2023-05-08T09:07:17;9.40;;;5.70;;
72286;SDS011;60221;45.696;16.076;2023-05-08T09:09:44;12.30;;;6.70;;
72286;SDS011;60221;45.696;16.076;2023-05-08T09:12:12;11.10;;;6.20;;
72286;SDS011;60221;45.696;16.076;2023-05-08T09:14:39;10.30;;;5.30;;
72286;SDS011;60221;45.696;16.076;2023-05-08T09:17:06;9.10;;;5.50;;
72286;SDS011;60221;45.696;16.076;2023-05-08T09:19:34;9.00;;;5.30;;
72286;SDS011;60221;45.696;16.076;2023-05-08T09:22:02;9.00;;;5.60;;
72286;SDS011;60221;45.696;16.076;2023-05-08T09:27:22;11.50;;;5.90;;
72286;SDS011;60221;45.696;16.076;2023-05-08T09:32:27;9.10;;;5.80;;
72286;SDS011;60221;45.696;16.076;2023-05-08T09:34:54;8.90;;;6.10;;
72286;SDS011;60221;45.696;16.076;2023-05-08T09:37:22;8.80;;;5.70;;
72286;SDS011;60221;45.696;16.076;2023-05-08T09:39:49;8.60;;;5.70;;
72286;SDS011;60221;45.696;16.076;2023-05-08T09:42:15;8.40;;;5.30;;
72286;SDS011;60221;45.696;16.076;2023-05-08T09:44:44;9.10;;;5.70;;
72286;SDS011;60221;45.696;16.076;2023-05-08T09:47:12;9.10;;;5.50;;
72286;SDS011;60221;45.696;16.076;2023-05-08T09:49:54;9.30;;;5.70;;
72286;SDS011;60221;45.696;16.076;2023-05-08T09:52:22;8.90;;;5.30;;
72286;SDS011;60221;45.696;16.076;2023-05-08T09:54:57;9.70;;;5.50;;
72286;SDS011;60221;45.696;16.076;2023-05-08T09:57:28;10.50;;;6.00;;
72286;SDS011;60221;45.696;16.076;2023-05-08T10:00:11;10.10;;;6.10;;
72286;SDS011;60221;45.696;16.076;2023-05-08T10:02:40;7.90;;;4.90;;
72286;SDS011;60221;45.696;16.076;2023-05-08T10:05:24;8.60;;;5.90;;
72286;SDS011;60221;45.696;16.076;2023-05-08T10:07:52;10.20;;;6.10;;
72286;SDS011;60221;45.696;16.076;2023-05-08T10:10:23;9.30;;;5.80;;
72286;SDS011;60221;45.696;16.076;2023-05-08T10:12:54;9.20;;;5.70;;
72286;SDS011;60221;45.696;16.076;2023-05-08T10:15:22;8.80;;;5.50;;
72286;SDS011;60221;45.696;16.076;2023-05-08T10:17:52;9.30;;;6.40;;
72286;SDS011;60221;45.696;16.076;2023-05-08T10:20:19;7.80;;;5.60;;
72286;SDS011;60221;45.696;16.076;2023-05-08T10:22:47;8.20;;;4.60;;
72286;SDS011;60221;45.696;16.076;2023-05-08T10:25:15;9.20;;;5.90;;
72286;SDS011;60221;45.696;16.076;2023-05-08T10:30:12;9.50;;;5.90;;
72286;SDS011;60221;45.696;16.076;2023-05-08T10:32:43;10.00;;;5.40;;
72286;SDS011;60221;45.696;16.076;2023-05-08T10:35:11;9.20;;;5.50;;
72286;SDS011;60221;45.696;16.076;2023-05-08T10:37:38;8.70;;;5.80;;
72286;SDS011;60221;45.696;16.076;2023-05-08T10:40:08;10.90;;;6.40;;
72286;SDS011;60221;45.696;16.076;2023-05-08T10:42:35;12.60;;;7.10;;
72286;SDS011;60221;45.696;16.076;2023-05-08T10:45:03;9.20;;;5.90;;
72286;SDS011;60221;45.696;16.076;2023-05-08T10:52:46;10.10;;;6.70;;
72286;SDS011;60221;45.696;16.076;2023-05-08T10:55:29;8.70;;;5.50;;
72286;SDS011;60221;45.696;16.076;2023-05-08T10:58:04;10.10;;;5.30;;
72286;SDS011;60221;45.696;16.076;2023-05-08T11:03:23;8.10;;;5.80;;
72286;SDS011;60221;45.696;16.076;2023-05-08T11:05:59;7.60;;;5.60;;
72286;SDS011;60221;45.696;16.076;2023-05-08T11:08:27;9.10;;;5.10;;
72286;SDS011;60221;45.696;16.076;2023-05-08T11:13:34;8.00;;;5.40;;
72286;SDS011;60221;45.696;16.076;2023-05-08T11:16:02;6.80;;;4.60;;
72286;SDS011;60221;45.696;16.076;2023-05-08T11:18:29;7.20;;;4.40;;
72286;SDS011;60221;45.696;16.076;2023-05-08T11:21:14;6.70;;;4.40;;
72286;SDS011;60221;45.696;16.076;2023-05-08T11:23:41;12.90;;;4.80;;
72286;SDS011;60221;45.696;16.076;2023-05-08T11:26:12;8.20;;;4.20;;
72286;SDS011;60221;45.696;16.076;2023-05-08T11:28:54;7.30;;;4.60;;
72286;SDS011;60221;45.696;16.076;2023-05-08T11:31:22;7.00;;;4.60;;
72286;SDS011;60221;45.696;16.076;2023-05-08T11:33:50;9.60;;;5.80;;
72286;SDS011;60221;45.696;16.076;2023-05-08T11:36:18;8.00;;;4.20;;
72286;SDS011;60221;45.696;16.076;2023-05-08T11:39:07;8.20;;;5.70;;
72286;SDS011;60221;45.696;16.076;2023-05-08T11:41:34;7.20;;;5.00;;
72286;SDS011;60221;45.696;16.076;2023-05-08T11:49:02;8.20;;;5.40;;
72286;SDS011;60221;45.696;16.076;2023-05-08T11:51:30;8.10;;;5.80;;
72286;SDS011;60221;45.696;16.076;2023-05-08T11:54:01;7.20;;;4.50;;
72286;SDS011;60221;45.696;16.076;2023-05-08T11:56:28;7.20;;;4.40;;
72286;SDS011;60221;45.696;16.076;2023-05-08T11:59:03;8.40;;;4.80;;
72286;SDS011;60221;45.696;16.076;2023-05-08T12:01:30;8.30;;;5.90;;
72286;SDS011;60221;45.696;16.076;2023-05-08T12:03:59;7.30;;;4.90;;
72286;SDS011;60221;45.696;16.076;2023-05-08T12:06:27;8.10;;;4.90;;
72286;SDS011;60221;45.696;16.076;2023-05-08T12:08:54;7.60;;;5.00;;
72286;SDS011;60221;45.696;16.076;2023-05-08T12:11:21;7.70;;;5.00;;
72286;SDS011;60221;45.696;16.076;2023-05-08T12:13:49;6.90;;;4.20;;
72286;SDS011;60221;45.696;16.076;2023-05-08T12:16:16;8.10;;;4.70;;
72286;SDS011;60221;45.696;16.076;2023-05-08T12:21:30;7.70;;;4.90;;
72286;SDS011;60221;45.696;16.076;2023-05-08T12:23:57;6.80;;;4.10;;
72286;SDS011;60221;45.696;16.076;2023-05-08T12:26:23;7.50;;;4.30;;
72286;SDS011;60221;45.696;16.076;2023-05-08T12:28:54;7.60;;;4.50;;
72286;SDS011;60221;45.696;16.076;2023-05-08T12:31:22;6.80;;;4.90;;
72286;SDS011;60221;45.696;16.076;2023-05-08T12:33:49;7.50;;;5.10;;
72286;SDS011;60221;45.696;16.076;2023-05-08T12:36:17;7.40;;;4.50;;
72286;SDS011;60221;45.696;16.076;2023-05-08T12:38:44;8.40;;;5.40;;
72286;SDS011;60221;45.696;16.076;2023-05-08T12:41:11;5.90;;;4.40;;
72286;SDS011;60221;45.696;16.076;2023-05-08T12:43:38;9.90;;;5.40;;
72286;SDS011;60221;45.696;16.076;2023-05-08T12:46:05;7.50;;;4.60;;
72286;SDS011;60221;45.696;16.076;2023-05-08T12:48:37;8.00;;;4.70;;
72286;SDS011;60221;45.696;16.076;2023-05-08T12:51:04;7.40;;;4.50;;
72286;SDS011;60221;45.696;16.076;2023-05-08T12:53:31;8.20;;;4.20;;
72286;SDS011;60221;45.696;16.076;2023-05-08T12:56:02;8.30;;;4.50;;
72286;SDS011;60221;45.696;16.076;2023-05-08T12:58:30;6.40;;;4.20;;
72286;SDS011;60221;45.696;16.076;2023-05-08T13:01:10;7.70;;;4.00;;
72286;SDS011;60221;45.696;16.076;2023-05-08T13:03:39;6.40;;;4.40;;
72286;SDS011;60221;45.696;16.076;2023-05-08T13:06:17;6.40;;;4.20;;
72286;SDS011;60221;45.696;16.076;2023-05-08T13:08:44;6.70;;;3.90;;
72286;SDS011;60221;45.696;16.076;2023-05-08T13:11:11;5.60;;;3.60;;
72286;SDS011;60221;45.696;16.076;2023-05-08T13:13:38;7.80;;;4.40;;
72286;SDS011;60221;45.696;16.076;2023-05-08T13:16:05;6.40;;;3.80;;
72286;SDS011;60221;45.696;16.076;2023-05-08T13:18:33;6.70;;;4.70;;
72286;SDS011;60221;45.696;16.076;2023-05-08T13:21:02;7.40;;;4.70;;
72286;SDS011;60221;45.696;16.076;2023-05-08T13:23:29;6.30;;;4.20;;
72286;SDS011;60221;45.696;16.076;2023-05-08T13:25:56;6.90;;;4.90;;
72286;SDS011;60221;45.696;16.076;2023-05-08T13:28:23;7.60;;;4.40;;
72286;SDS011;60221;45.696;16.076;2023-05-08T13:30:50;6.50;;;4.30;;
72286;SDS011;60221;45.696;16.076;2023-05-08T13:33:17;5.90;;;3.60;;
72286;SDS011;60221;45.696;16.076;2023-05-08T13:35:43;6.00;;;3.60;;
72286;SDS011;60221;45.696;16.076;2023-05-08T13:38:11;6.60;;;4.30;;
72286;SDS011;60221;45.696;16.076;2023-05-08T13:40:38;7.00;;;4.40;;
72286;SDS011;60221;45.696;16.076;2023-05-08T13:43:04;6.20;;;3.70;;
72286;SDS011;60221;45.696;16.076;2023-05-08T13:45:31;8.30;;;4.10;;
72286;SDS011;60221;45.696;16.076;2023-05-08T13:47:58;8.20;;;4.40;;
72286;SDS011;60221;45.696;16.076;2023-05-08T13:50:26;7.00;;;4.90;;
72286;SDS011;60221;45.696;16.076;2023-05-08T13:52:53;8.10;;;4.50;;
72286;SDS011;60221;45.696;16.076;2023-05-08T13:55:20;7.10;;;3.80;;
72286;SDS011;60221;45.696;16.076;2023-05-08T13:57:49;6.90;;;3.70;;
72286;SDS011;60221;45.696;16.076;2023-05-08T14:00:16;6.40;;;3.90;;
72286;SDS011;60221;45.696;16.076;2023-05-08T14:02:43;8.60;;;4.40;;
72286;SDS011;60221;45.696;16.076;2023-05-08T14:05:11;9.00;;;4.40;;
72286;SDS011;60221;45.696;16.076;2023-05-08T14:07:38;7.30;;;4.40;;
72286;SDS011;60221;45.696;16.076;2023-05-08T14:10:05;8.70;;;4.80;;
72286;SDS011;60221;45.696;16.076;2023-05-08T14:12:32;9.10;;;5.00;;
72286;SDS011;60221;45.696;16.076;2023-05-08T14:15:03;7.50;;;4.00;;
72286;SDS011;60221;45.696;16.076;2023-05-08T14:17:31;7.50;;;4.40;;
72286;SDS011;60221;45.696;16.076;2023-05-08T14:19:58;8.40;;;4.50;;
72286;SDS011;60221;45.696;16.076;2023-05-08T14:22:25;8.10;;;5.40;;
72286;SDS011;60221;45.696;16.076;2023-05-08T14:24:51;8.20;;;4.90;;
72286;SDS011;60221;45.696;16.076;2023-05-08T14:27:18;8.90;;;5.10;;
72286;SDS011;60221;45.696;16.076;2023-05-08T14:29:45;7.20;;;4.50;;
72286;SDS011;60221;45.696;16.076;2023-05-08T14:32:12;7.60;;;4.50;;
72286;SDS011;60221;45.696;16.076;2023-05-08T14:34:39;8.30;;;5.00;;
72286;SDS011;60221;45.696;16.076;2023-05-08T14:37:06;6.50;;;3.70;;
72286;SDS011;60221;45.696;16.076;2023-05-08T14:39:33;6.50;;;4.00;;
72286;SDS011;60221;45.696;16.076;2023-05-08T14:42:00;8.40;;;4.70;;
72286;SDS011;60221;45.696;16.076;2023-05-08T14:44:47;5.80;;;3.60;;
72286;SDS011;60221;45.696;16.076;2023-05-08T14:47:15;5.50;;;2.90;;
72286;SDS011;60221;45.696;16.076;2023-05-08T14:49:42;5.60;;;3.00;;
72286;SDS011;60221;45.696;16.076;2023-05-08T14:52:08;5.90;;;2.90;;
72286;SDS011;60221;45.696;16.076;2023-05-08T14:54:35;6.90;;;2.90;;
72286;SDS011;60221;45.696;16.076;2023-05-08T14:57:03;5.70;;;2.80;;
72286;SDS011;60221;45.696;16.076;2023-05-08T14:59:30;5.90;;;3.10;;
72286;SDS011;60221;45.696;16.076;2023-05-08T15:01:57;7.00;;;3.30;;
72286;SDS011;60221;45.696;16.076;2023-05-08T15:04:24;6.00;;;3.50;;
72286;SDS011;60221;45.696;16.076;2023-05-08T15:06:51;5.70;;;3.40;;
72286;SDS011;60221;45.696;16.076;2023-05-08T15:09:18;6.50;;;3.70;;
72286;SDS011;60221;45.696;16.076;2023-05-08T15:11:44;7.90;;;3.50;;
72286;SDS011;60221;45.696;16.076;2023-05-08T15:14:11;6.40;;;3.10;;
72286;SDS011;60221;45.696;16.076;2023-05-08T15:16:38;7.00;;;5.00;;
72286;SDS011;60221;45.696;16.076;2023-05-08T15:19:05;6.90;;;3.50;;
72286;SDS011;60221;45.696;16.076;2023-05-08T15:21:35;5.20;;;3.00;;
72286;SDS011;60221;45.696;16.076;2023-05-08T15:24:02;6.90;;;3.50;;
72286;SDS011;60221;45.696;16.076;2023-05-08T15:26:29;6.70;;;3.60;;